Hillview, KY (40129)

12:13 AM EST on November 23, 2014 (GMT -0500)
MESOTRACK WeatherLAB | Change Station
CLOSE
Current Station
Personal Weather Station
Location: Shepherdsville, KY
Elevation: 554 ft
Nearby Weather Stations

Elev 554 ft 38.01 °N, 85.66 °W | Updated 3 seconds ago

Mostly Cloudy
Mostly Cloudy
49.2 °F
Feels Like 49 °F
N
0.0
Wind Variable Wind from South
Gusts 3.0 mph

Today
High -- | Low -- °F
--% Chance of Precip.
Yesterday
High -- | Low -- °F
Precip. -- in
7:32 AM 5:25 PM
New Moon, 1% visible
Pressure 30.05 in
Visibility 10.0 miles
Clouds Few 12000 ft
Mostly Cloudy 13000 ft
Windchill 49 °F
Dew Point 35 °F
Humidity 57%
Rainfall 0.00 in
Snow Depth Not available.
UV 0 out of 12
Pollen .10 out of 12
Air Quality Not available.
Flu Activity Not available.
METAR KSDF 230456Z 14005KT 10SM FEW120 BKN130 09/01 A3005 RMK AO2 SLP176 T00940011 401830022

More Conditions Fewer Conditions

Pressure 30.05 in
Visibility 10.0 miles
Clouds Few 12000 ft
Mostly Cloudy 13000 ft
Windchill 49 °F
Dew Point 35 °F
Humidity 57%
Rainfall 0.00 in
Snow Depth Not available.
UV 0 out of 12
Pollen .10 out of 12
Air Quality Not available.
Flu Activity Not available.
METAR KSDF 230456Z 14005KT 10SM FEW120 BKN130 09/01 A3005 RMK AO2 SLP176 T00940011 401830022

More Conditions Fewer Conditions

10-Day Weather Forecast

Almanac

Astronomy

Nov. 23, 2014 Rise Set
Actual Time
Civil Twilight
Nautical Twilight
Astronomical Twilight
Moon
Length of Visible Light
Length of Day
Tomorrow will be .
, % of the Moon is Illuminated

Today's Extremes

State Highs State Lows

Community

WunderPhotos

Upload Photos

1,773,010 photos uploaded!

WunderBlogs® & News

Nearby

Air Quality

  Air Quality AQ Index Pollutant
Not available.

Snow Depth

Station Depth Elevation

Earthquake Activity

City Distance Mag. Time & Date
Minimum magnitude displayed is 2.5.

Coastal Water Temperatures

Place Temperature

Nearby Weather Stations